Time;durP1;ratioP1;P1;durP2;ratioP2;P2;SDS_P1;SDS_P2;PMS_P1;PMS_P2;Temp;Humidity;BMP_temperature;BMP_pressure;BME280_temperature;BME280_humidity;BME280_pressure;Samples;Min_cycle;Max_cycle;Signal;HPM_P1;HPM_P2
2022/01/30 00:00:12;;;;;;;;;;;2.80;99.90;;;;;;5035643;28;19942;-74
2022/01/30 00:02:38;;;;;;;;;;;2.80;99.90;;;;;;5036469;28;19970;-76
2022/01/30 00:05:04;;;;;;;;;;;2.80;99.90;;;;;;5037074;28;19921;-74
2022/01/30 00:07:30;;;;;;;;;;;2.70;99.90;;;;;;5036932;28;20364;-74
2022/01/30 00:09:56;;;;;;;;;;;2.70;99.90;;;;;;5037263;28;19920;-80
2022/01/30 00:12:31;;;;;;;;;;;2.80;99.90;;;;;;5037147;28;19917;-72
2022/01/30 00:14:57;;;;;;;;;;;2.90;99.90;;;;;;5036869;28;19913;-76
2022/01/30 00:17:31;;;;;;;;;;;2.90;99.90;;;;;;5036746;28;19913;-80
2022/01/30 00:20:04;;;;;;;;;;;3.00;99.90;;;;;;5052271;28;19913;-78
2022/01/30 00:25:00;;;;;;;;;;;3.00;99.90;;;;;;5037116;28;19917;-78
2022/01/30 00:27:30;;;;;;;;;;;3.00;99.90;;;;;;5036666;28;19919;-81
2022/01/30 00:29:55;;;;;;;;;;;3.00;99.90;;;;;;5052222;28;20280;-81
2022/01/30 00:32:21;;;;;;;;;;;3.00;99.90;;;;;;5052109;28;19913;-76
2022/01/30 00:34:47;;;;;;;;;;;3.00;99.90;;;;;;5036464;28;19913;-80
2022/01/30 00:37:12;;;;;;;;;;;3.00;99.90;;;;;;5036108;28;19913;-71
2022/01/30 00:39:38;;;;;;;;;;;3.00;99.90;;;;;;5035108;28;19913;-80
2022/01/30 00:42:04;;;;;;;;;;;3.10;99.90;;;;;;5036581;28;19917;-81
2022/01/30 00:44:29;;;;;;;;;;;3.10;99.90;;;;;;5036547;28;20007;-77
2022/01/30 00:46:56;;;;;;;;;;;3.30;99.90;;;;;;5027862;28;19921;-81
2022/01/30 00:49:22;;;;;;;;;;;3.30;99.90;;;;;;5035353;28;19921;-82
2022/01/30 00:51:48;;;;;;;;;;;3.30;99.90;;;;;;5036429;28;19921;-82
2022/01/30 00:54:13;;;;;;;;;;;3.30;99.90;;;;;;5033704;28;20253;-73
2022/01/30 00:56:39;;;;;;;;;;;3.30;99.90;;;;;;5035035;28;20390;-79
2022/01/30 00:59:04;;;;;;;;;;;3.20;99.90;;;;;;5035861;28;20011;-80
2022/01/30 01:01:32;;;;;;;;;;;3.20;99.90;;;;;;5035982;28;20320;-81
2022/01/30 01:03:58;;;;;;;;;;;3.30;99.90;;;;;;5036059;28;20016;-82
2022/01/30 01:06:23;;;;;;;;;;;3.30;99.90;;;;;;5035910;28;20427;-83
2022/01/30 01:08:57;;;;;;;;;;;3.30;99.90;;;;;;5035726;28;19920;-83
2022/01/30 01:24:41;;;;;;;;;;;3.30;99.90;;;;;;5035694;28;19939;-83
2022/01/30 01:27:07;;;;;;;;;;;3.40;99.90;;;;;;5034306;28;20003;-71
2022/01/30 01:29:33;;;;;;;;;;;3.40;99.90;;;;;;5035453;28;19975;-81
2022/01/30 01:31:58;;;;;;;;;;;3.30;99.90;;;;;;5035443;28;19920;-75
2022/01/30 01:34:36;;;;;;;;;;;3.40;99.90;;;;;;5035652;28;20406;-82
2022/01/30 01:37:01;;;;;;;;;;;3.40;99.90;;;;;;5035682;28;20403;-81
2022/01/30 01:39:27;;;;;;;;;;;3.40;99.90;;;;;;5035664;28;19913;-80
2022/01/30 01:41:53;;;;;;;;;;;3.50;99.90;;;;;;5035610;28;19920;-81
2022/01/30 01:44:43;;;;;;;;;;;3.50;99.90;;;;;;5034156;28;19913;-79
2022/01/30 01:47:08;;;;;;;;;;;3.40;99.90;;;;;;5035026;28;19917;-75
2022/01/30 01:49:34;;;;;;;;;;;3.50;99.90;;;;;;5033938;28;20261;-73
2022/01/30 01:54:45;;;;;;;;;;;3.50;99.90;;;;;;5035090;28;19919;-80
2022/01/30 01:57:11;;;;;;;;;;;3.50;99.90;;;;;;5034012;28;20004;-79
2022/01/30 01:59:36;;;;;;;;;;;3.50;99.90;;;;;;5035160;28;20008;-79
2022/01/30 02:02:03;;;;;;;;;;;3.50;99.90;;;;;;5033703;28;20016;-76
2022/01/30 02:04:29;;;;;;;;;;;3.50;99.90;;;;;;5034906;28;20357;-81
2022/01/30 02:07:12;;;;;;;;;;;3.60;99.90;;;;;;5034747;28;19967;-81
2022/01/30 02:09:39;;;;;;;;;;;3.60;99.90;;;;;;5033364;28;20272;-79
2022/01/30 02:12:05;;;;;;;;;;;3.70;99.90;;;;;;5034824;28;19960;-81
2022/01/30 02:15:04;;;;;;;;;;;3.80;99.90;;;;;;5050180;28;19914;-81
2022/01/30 02:26:03;;;;;;;;;;;3.80;99.90;;;;;;5032371;28;19921;-81
2022/01/30 02:28:31;;;;;;;;;;;3.70;99.90;;;;;;5033425;28;19975;-71
2022/01/30 02:31:09;;;;;;;;;;;3.80;99.90;;;;;;5034341;28;19917;-71
2022/01/30 02:33:35;;;;;;;;;;;3.70;99.90;;;;;;5034495;28;20272;-81
2022/01/30 02:36:01;;;;;;;;;;;3.70;99.90;;;;;;5034378;28;19913;-77
2022/01/30 02:38:27;;;;;;;;;;;3.70;99.90;;;;;;5034374;28;19920;-75
2022/01/30 02:40:55;;;;;;;;;;;3.70;99.90;;;;;;5034419;28;19917;-74
2022/01/30 02:43:27;;;;;;;;;;;3.70;99.90;;;;;;5034223;28;19913;-78
2022/01/30 02:46:05;;;;;;;;;;;3.70;99.90;;;;;;5034158;28;19914;-72
2022/01/30 02:48:47;;;;;;;;;;;3.70;99.90;;;;;;5033672;28;19921;-81
2022/01/30 02:51:15;;;;;;;;;;;3.70;99.90;;;;;;5034205;28;19997;-81
2022/01/30 02:53:45;;;;;;;;;;;3.60;99.90;;;;;;5034186;28;19913;-80
2022/01/30 02:56:11;;;;;;;;;;;3.60;99.90;;;;;;5034196;28;19960;-81
2022/01/30 02:58:37;;;;;;;;;;;3.50;99.90;;;;;;5034133;28;20018;-74
2022/01/30 03:01:02;;;;;;;;;;;3.60;99.90;;;;;;5034046;28;20001;-81
2022/01/30 03:03:28;;;;;;;;;;;3.50;99.90;;;;;;5033979;28;19988;-80
2022/01/30 03:05:53;;;;;;;;;;;3.40;99.90;;;;;;5033804;28;20261;-82
2022/01/30 03:08:19;;;;;;;;;;;3.50;99.90;;;;;;5033600;28;19980;-80
2022/01/30 03:10:45;;;;;;;;;;;3.50;99.90;;;;;;5032512;28;19913;-80
2022/01/30 03:13:10;;;;;;;;;;;3.50;99.90;;;;;;5034086;28;19967;-82
2022/01/30 03:15:36;;;;;;;;;;;3.50;99.90;;;;;;5032375;28;20380;-82
2022/01/30 03:18:01;;;;;;;;;;;3.50;99.90;;;;;;5033339;28;19951;-81
2022/01/30 03:20:27;;;;;;;;;;;3.60;99.90;;;;;;5033112;28;20352;-72
2022/01/30 03:22:53;;;;;;;;;;;3.60;99.90;;;;;;5032369;28;19980;-77
2022/01/30 03:25:18;;;;;;;;;;;3.60;99.90;;;;;;5033743;28;20284;-79
2022/01/30 03:27:50;;;;;;;;;;;3.70;99.90;;;;;;5033671;28;19983;-82
2022/01/30 03:30:24;;;;;;;;;;;3.70;99.90;;;;;;5032647;28;20479;-81
2022/01/30 03:32:49;;;;;;;;;;;3.70;99.90;;;;;;5033595;28;19932;-79
2022/01/30 03:35:15;;;;;;;;;;;;;;;;;;5033575;28;20323;-74
2022/01/30 03:37:41;;;;;;;;;;;3.80;99.90;;;;;;5033437;28;19939;-77
2022/01/30 03:40:07;;;;;;;;;;;3.80;99.90;;;;;;5033586;28;20384;-79
2022/01/30 03:42:32;;;;;;;;;;;4.20;99.90;;;;;;5032979;28;20424;-73
2022/01/30 03:44:58;;;;;;;;;;;4.10;99.90;;;;;;5033273;28;19914;-83
2022/01/30 03:47:26;;;;;;;;;;;4.00;99.90;;;;;;5031055;28;19921;-80
2022/01/30 03:49:52;;;;;;;;;;;3.90;99.90;;;;;;5033400;28;19921;-78
2022/01/30 03:52:17;;;;;;;;;;;3.80;99.90;;;;;;5032143;28;19913;-78
2022/01/30 03:54:43;;;;;;;;;;;3.90;99.90;;;;;;5033232;28;19978;-75
2022/01/30 03:57:09;;;;;;;;;;;3.90;99.90;;;;;;5033441;28;19921;-81
2022/01/30 03:59:34;;;;;;;;;;;3.90;99.90;;;;;;5033304;28;20012;-83
2022/01/30 04:02:00;;;;;;;;;;;4.00;99.90;;;;;;5029668;28;19921;-78
2022/01/30 04:04:26;;;;;;;;;;;4.00;99.90;;;;;;5030909;28;19964;-74
2022/01/30 04:06:52;;;;;;;;;;;4.00;99.90;;;;;;5046165;28;19913;-80
2022/01/30 04:09:17;;;;;;;;;;;4.00;99.90;;;;;;5031545;28;19928;-75
2022/01/30 04:11:43;;;;;;;;;;;4.00;99.90;;;;;;5033412;28;19913;-75
2022/01/30 04:14:09;;;;;;;;;;;4.00;99.90;;;;;;5048487;28;19913;-82
2022/01/30 04:16:34;;;;;;;;;;;4.00;99.90;;;;;;5033049;28;19920;-83
2022/01/30 04:19:00;;;;;;;;;;;4.00;99.90;;;;;;5033135;28;19967;-83
2022/01/30 04:21:26;;;;;;;;;;;4.00;99.90;;;;;;5032973;28;19921;-79
2022/01/30 04:23:52;;;;;;;;;;;4.10;99.90;;;;;;5033173;28;19913;-82
2022/01/30 04:26:17;;;;;;;;;;;4.10;99.90;;;;;;5033109;28;20009;-83
2022/01/30 04:28:43;;;;;;;;;;;4.10;99.90;;;;;;5033038;28;19972;-73
2022/01/30 04:31:09;;;;;;;;;;;4.10;99.90;;;;;;5035425;28;20280;-72
2022/01/30 04:33:35;;;;;;;;;;;4.10;99.90;;;;;;5036825;28;19939;-83
2022/01/30 04:36:07;;;;;;;;;;;4.20;99.90;;;;;;5036281;28;19913;-83
2022/01/30 04:38:50;;;;;;;;;;;4.20;99.90;;;;;;5036499;28;21051;-83
2022/01/30 05:05:41;;;;;;;;;;;4.40;99.90;;;;;;5036268;28;19917;-81
2022/01/30 05:08:06;;;;;;;;;;;4.40;99.90;;;;;;5035938;28;19916;-77
2022/01/30 05:10:32;;;;;;;;;;;4.40;99.90;;;;;;5035552;28;19917;-78
2022/01/30 05:13:00;;;;;;;;;;;4.40;99.90;;;;;;5035546;28;19924;-85
2022/01/30 05:15:28;;;;;;;;;;;4.50;99.90;;;;;;5035444;28;19917;-83
2022/01/30 05:17:54;;;;;;;;;;;4.50;99.90;;;;;;5035538;28;19920;-73
2022/01/30 05:20:19;;;;;;;;;;;4.50;99.90;;;;;;5035941;28;19909;-85
2022/01/30 05:22:45;;;;;;;;;;;4.50;99.90;;;;;;5034558;28;19921;-85
2022/01/30 05:25:11;;;;;;;;;;;4.50;99.90;;;;;;5035774;28;19913;-82
2022/01/30 05:27:37;;;;;;;;;;;4.50;99.90;;;;;;5035600;28;19917;-75
2022/01/30 05:30:03;;;;;;;;;;;;;;;;;;5035724;28;19925;-85
2022/01/30 05:32:28;;;;;;;;;;;4.50;99.90;;;;;;5051080;28;19917;-73
2022/01/30 05:34:55;;;;;;;;;;;;;;;;;;5035826;28;19913;-85
2022/01/30 05:37:21;;;;;;;;;;;4.60;99.90;;;;;;5035650;28;19979;-81
2022/01/30 05:39:47;;;;;;;;;;;4.60;99.90;;;;;;5035451;28;20390;-76
2022/01/30 05:42:13;;;;;;;;;;;4.70;99.90;;;;;;5033106;28;20291;-82
2022/01/30 05:47:12;;;;;;;;;;;4.60;99.90;;;;;;5035400;28;19996;-80
2022/01/30 05:49:38;;;;;;;;;;;4.60;99.90;;;;;;5035125;28;19929;-82
2022/01/30 05:52:04;;;;;;;;;;;4.60;99.90;;;;;;5035077;28;19917;-75
2022/01/30 05:54:30;;;;;;;;;;;4.60;99.90;;;;;;5034981;28;19920;-82
2022/01/30 05:56:55;;;;;;;;;;;4.60;99.90;;;;;;5034814;28;19943;-80
2022/01/30 05:59:21;;;;;;;;;;;4.60;99.90;;;;;;5034946;28;19917;-78
2022/01/30 06:01:46;;;;;;;;;;;4.60;99.90;;;;;;5033595;28;19917;-75
2022/01/30 06:04:12;;;;;;;;;;;4.60;99.90;;;;;;5035126;28;20288;-81
2022/01/30 06:06:38;;;;;;;;;;;4.60;99.90;;;;;;5035106;28;20012;-80
2022/01/30 06:09:19;;;;;;;;;;;4.70;99.90;;;;;;5034984;28;19933;-79
2022/01/30 06:11:47;;;;;;;;;;;4.60;99.90;;;;;;5034828;28;19963;-74
2022/01/30 06:14:13;;;;;;;;;;;4.60;99.90;;;;;;5033175;28;19913;-82
2022/01/30 06:16:39;;;;;;;;;;;4.60;99.90;;;;;;5034421;28;19921;-75
2022/01/30 06:19:05;;;;;;;;;;;4.70;99.90;;;;;;5034544;28;19922;-73
2022/01/30 06:21:30;;;;;;;;;;;4.70;99.90;;;;;;5034481;28;19939;-79
2022/01/30 06:23:56;;;;;;;;;;;4.70;99.90;;;;;;5034304;28;19924;-81
2022/01/30 06:26:21;;;;;;;;;;;4.70;99.90;;;;;;5034233;28;19909;-81
2022/01/30 06:28:47;;;;;;;;;;;4.70;99.90;;;;;;5033078;28;20064;-69
2022/01/30 06:31:13;;;;;;;;;;;4.70;99.90;;;;;;5033073;28;19913;-73
2022/01/30 06:33:39;;;;;;;;;;;4.80;99.90;;;;;;5033299;28;20435;-71
2022/01/30 06:36:04;;;;;;;;;;;4.80;99.90;;;;;;5034122;28;19924;-70
2022/01/30 06:38:30;;;;;;;;;;;4.70;99.90;;;;;;5033334;28;19956;-78
2022/01/30 06:40:55;;;;;;;;;;;4.70;99.90;;;;;;5034197;28;20004;-81
2022/01/30 06:43:22;;;;;;;;;;;4.80;99.90;;;;;;5034362;28;19913;-69
2022/01/30 06:45:48;;;;;;;;;;;4.80;99.90;;;;;;5034431;28;19917;-77
2022/01/30 06:48:17;;;;;;;;;;;4.80;99.90;;;;;;5034275;28;19924;-82
2022/01/30 06:50:43;;;;;;;;;;;4.90;99.90;;;;;;5034287;28;20249;-81
2022/01/30 06:53:09;;;;;;;;;;;5.00;99.90;;;;;;5033893;28;19967;-81
2022/01/30 06:55:34;;;;;;;;;;;5.00;99.90;;;;;;5033606;28;19920;-81
2022/01/30 06:58:00;;;;;;;;;;;5.10;99.90;;;;;;5034189;28;19917;-76
2022/01/30 07:00:26;;;;;;;;;;;5.10;99.90;;;;;;5034088;28;19924;-78
2022/01/30 07:02:52;;;;;;;;;;;5.00;99.90;;;;;;5033982;28;19940;-76
2022/01/30 07:05:17;;;;;;;;;;;5.10;99.90;;;;;;5034047;28;20326;-70
2022/01/30 07:07:43;;;;;;;;;;;5.10;99.90;;;;;;5033426;28;19913;-72
2022/01/30 07:10:09;;;;;;;;;;;5.00;99.90;;;;;;5033812;28;19923;-82
2022/01/30 07:12:34;;;;;;;;;;;5.00;99.90;;;;;;5033788;28;20000;-80
2022/01/30 07:15:00;;;;;;;;;;;5.00;99.90;;;;;;5033885;28;19913;-71
2022/01/30 07:17:25;;;;;;;;;;;5.00;99.90;;;;;;5033832;28;19917;-81
2022/01/30 07:19:51;;;;;;;;;;;5.00;99.90;;;;;;5033874;28;20339;-75
2022/01/30 07:22:16;;;;;;;;;;;4.90;99.90;;;;;;5033778;28;19947;-75
2022/01/30 07:24:42;;;;;;;;;;;4.90;99.90;;;;;;5033789;28;19913;-76
2022/01/30 07:27:08;;;;;;;;;;;4.90;99.90;;;;;;5032430;28;19920;-78
2022/01/30 07:29:33;;;;;;;;;;;5.10;99.90;;;;;;5033560;28;19921;-82
2022/01/30 07:31:59;;;;;;;;;;;5.10;99.90;;;;;;5033378;28;19920;-81
2022/01/30 07:34:25;;;;;;;;;;;5.10;99.90;;;;;;5048675;28;19913;-82
2022/01/30 07:36:50;;;;;;;;;;;5.10;99.90;;;;;;5048555;28;19913;-78
2022/01/30 07:39:16;;;;;;;;;;;5.10;99.90;;;;;;5033383;28;19921;-81
2022/01/30 07:41:45;;;;;;;;;;;5.10;99.90;;;;;;5033524;28;19921;-79
2022/01/30 07:44:10;;;;;;;;;;;5.10;99.90;;;;;;5033449;28;20344;-82
2022/01/30 07:46:36;;;;;;;;;;;5.10;99.90;;;;;;5033193;28;19964;-80
2022/01/30 07:49:02;;;;;;;;;;;5.10;99.90;;;;;;5033244;28;20304;-82
2022/01/30 07:51:28;;;;;;;;;;;5.10;99.90;;;;;;5033510;28;19960;-72
2022/01/30 07:53:53;;;;;;;;;;;5.10;99.90;;;;;;5033282;28;20280;-70
2022/01/30 07:56:19;;;;;;;;;;;5.20;99.90;;;;;;5033131;28;19920;-82
2022/01/30 07:58:44;;;;;;;;;;;5.10;99.90;;;;;;5032959;28;19953;-81
2022/01/30 08:01:10;;;;;;;;;;;5.20;99.90;;;;;;5033239;28;19924;-81
2022/01/30 08:03:35;;;;;;;;;;;5.20;99.90;;;;;;5032024;28;20277;-79
2022/01/30 08:06:01;;;;;;;;;;;5.20;99.90;;;;;;5035456;28;19966;-81
2022/01/30 08:08:27;;;;;;;;;;;5.20;99.90;;;;;;5033247;28;19960;-69
2022/01/30 08:10:52;;;;;;;;;;;5.20;99.90;;;;;;5035026;28;19917;-77
2022/01/30 08:13:18;;;;;;;;;;;5.20;99.90;;;;;;5035985;28;19921;-74
2022/01/30 08:15:44;;;;;;;;;;;5.20;99.90;;;;;;5037104;28;19913;-74
2022/01/30 08:18:10;;;;;;;;;;;5.20;99.90;;;;;;5052020;28;19913;-81
2022/01/30 08:20:36;;;;;;;;;;;5.10;99.90;;;;;;5037009;28;19946;-79
2022/01/30 08:23:07;;;;;;;;;;;5.20;99.90;;;;;;5036881;28;20272;-80
2022/01/30 08:25:33;;;;;;;;;;;5.10;99.90;;;;;;5036929;28;19917;-71
2022/01/30 08:27:58;;;;;;;;;;;5.10;99.90;;;;;;5036828;28;19918;-81
2022/01/30 08:30:27;;;;;;;;;;;5.10;99.90;;;;;;5036848;28;19948;-80
2022/01/30 08:32:52;;;;;;;;;;;5.10;99.90;;;;;;5036687;28;19913;-80
2022/01/30 08:35:18;;;;;;;;;;;5.10;99.90;;;;;;5036748;28;20394;-80
2022/01/30 08:37:44;;;;;;;;;;;5.10;99.90;;;;;;5036561;28;19995;-72
2022/01/30 08:40:14;;;;;;;;;;;5.10;99.90;;;;;;5036331;28;20350;-80
2022/01/30 08:42:40;;;;;;;;;;;5.20;99.90;;;;;;5036629;28;19913;-79
2022/01/30 08:45:08;;;;;;;;;;;5.30;99.90;;;;;;5036623;28;19913;-70
2022/01/30 08:47:34;;;;;;;;;;;5.30;99.90;;;;;;5027313;28;19922;-82
2022/01/30 08:50:00;;;;;;;;;;;5.40;99.90;;;;;;5035364;28;20439;-81
2022/01/30 08:52:25;;;;;;;;;;;5.50;99.90;;;;;;5036319;28;19940;-74
2022/01/30 08:54:52;;;;;;;;;;;5.50;99.90;;;;;;5035148;28;19971;-80
2022/01/30 08:57:18;;;;;;;;;;;5.60;99.90;;;;;;5036287;28;19913;-78
2022/01/30 08:59:43;;;;;;;;;;;5.60;99.90;;;;;;5036200;28;20280;-82
2022/01/30 09:02:09;;;;;;;;;;;5.60;99.90;;;;;;5036340;28;20315;-81
2022/01/30 09:04:35;;;;;;;;;;;5.70;99.90;;;;;;5036100;28;20390;-81
2022/01/30 09:07:00;;;;;;;;;;;5.70;99.90;;;;;;5034775;28;19946;-83
2022/01/30 09:09:26;;;;;;;;;;;5.70;99.90;;;;;;5034898;28;19982;-82
2022/01/30 09:11:52;;;;;;;;;;;5.70;99.90;;;;;;5036191;28;19913;-82
2022/01/30 09:14:17;;;;;;;;;;;5.70;99.90;;;;;;5036182;28;19913;-77
2022/01/30 09:16:45;;;;;;;;;;;5.70;99.90;;;;;;5035101;28;20384;-70
2022/01/30 09:19:10;;;;;;;;;;;5.70;99.90;;;;;;5035925;28;20012;-78
2022/01/30 09:21:36;;;;;;;;;;;5.70;99.90;;;;;;5035941;28;20000;-80
2022/01/30 09:24:02;;;;;;;;;;;5.80;99.90;;;;;;5035916;28;19913;-79
2022/01/30 09:26:27;;;;;;;;;;;5.90;99.90;;;;;;5035925;28;19913;-74
2022/01/30 09:28:53;;;;;;;;;;;5.90;99.90;;;;;;5035939;28;19917;-80
2022/01/30 09:31:18;;;;;;;;;;;5.90;99.90;;;;;;5035757;28;19956;-80
2022/01/30 09:33:44;;;;;;;;;;;5.90;99.90;;;;;;5035637;28;20245;-81
2022/01/30 09:36:10;;;;;;;;;;;6.10;99.90;;;;;;5035608;28;20420;-79
2022/01/30 09:38:35;;;;;;;;;;;6.30;99.90;;;;;;5035597;28;19917;-75
2022/01/30 09:41:03;;;;;;;;;;;6.40;99.90;;;;;;5035667;28;19920;-74
2022/01/30 09:43:29;;;;;;;;;;;6.40;99.90;;;;;;5035523;28;19920;-77
2022/01/30 09:45:55;;;;;;;;;;;6.50;99.90;;;;;;5035481;28;19917;-81
2022/01/30 09:48:22;;;;;;;;;;;6.70;99.90;;;;;;5033950;28;20032;-70
2022/01/30 09:50:49;;;;;;;;;;;6.60;99.90;;;;;;5035332;28;20315;-81
2022/01/30 09:53:15;;;;;;;;;;;6.50;99.90;;;;;;5035128;28;19920;-81
2022/01/30 09:55:41;;;;;;;;;;;6.40;99.90;;;;;;5035372;28;19932;-78
2022/01/30 09:58:07;;;;;;;;;;;6.50;99.90;;;;;;5050087;28;20291;-71
2022/01/30 10:00:33;;;;;;;;;;;6.60;99.90;;;;;;5035064;28;20281;-72
2022/01/30 10:02:59;;;;;;;;;;;6.70;99.90;;;;;;5034338;28;20012;-71
2022/01/30 10:05:25;;;;;;;;;;;6.70;99.90;;;;;;5034671;28;20004;-70
2022/01/30 10:07:54;;;;;;;;;;;6.90;99.90;;;;;;5034885;28;20265;-78
2022/01/30 10:10:23;;;;;;;;;;;7.10;99.90;;;;;;5034765;28;19963;-72
2022/01/30 10:13:07;;;;;;;;;;;7.20;99.90;;;;;;5049683;28;20004;-70
2022/01/30 10:15:56;;;;;;;;;;;7.20;99.90;;;;;;5033848;28;19921;-71
2022/01/30 10:18:23;;;;;;;;;;;7.30;99.90;;;;;;5034457;28;19963;-72
2022/01/30 10:20:49;;;;;;;;;;;7.30;99.90;;;;;;5034224;28;19920;-69
2022/01/30 10:23:15;;;;;;;;;;;7.40;99.90;;;;;;5034246;28;19917;-71
2022/01/30 10:25:46;;;;;;;;;;;7.40;99.90;;;;;;5033865;28;19913;-78
2022/01/30 10:28:16;;;;;;;;;;;7.50;99.90;;;;;;5034213;28;19975;-70
2022/01/30 10:30:42;;;;;;;;;;;7.50;99.90;;;;;;5034341;28;19990;-79
2022/01/30 10:33:09;;;;;;;;;;;7.50;99.90;;;;;;5050067;28;20344;-74
2022/01/30 10:35:50;;;;;;;;;;;7.40;99.90;;;;;;5034512;28;20357;-79
2022/01/30 10:38:19;;;;;;;;;;;7.60;99.90;;;;;;5033971;28;19948;-70
2022/01/30 10:40:55;;;;;;;;;;;7.50;99.90;;;;;;5033571;28;19999;-70
2022/01/30 10:43:20;;;;;;;;;;;7.50;99.90;;;;;;5032370;28;19952;-71
2022/01/30 10:45:46;;;;;;;;;;;7.60;99.90;;;;;;5032355;28;19940;-70
2022/01/30 10:48:12;;;;;;;;;;;7.80;99.90;;;;;;5031787;28;20035;-80
2022/01/30 10:50:39;;;;;;;;;;;7.90;99.90;;;;;;5033139;28;19944;-72
2022/01/30 10:53:04;;;;;;;;;;;7.80;99.90;;;;;;5032968;28;19920;-79
2022/01/30 10:55:34;;;;;;;;;;;7.90;99.90;;;;;;5033602;28;20273;-74
2022/01/30 10:58:03;;;;;;;;;;;7.90;99.90;;;;;;5032125;28;20357;-73
2022/01/30 11:00:35;;;;;;;;;;;8.00;99.90;;;;;;5020862;28;19917;-82
2022/01/30 11:03:01;;;;;;;;;;;8.00;99.90;;;;;;5032560;28;20329;-73
2022/01/30 11:05:26;;;;;;;;;;;8.40;99.90;;;;;;5032488;28;19959;-73
2022/01/30 11:07:52;;;;;;;;;;;8.30;99.90;;;;;;5031948;28;19917;-73
2022/01/30 11:10:23;;;;;;;;;;;8.30;99.90;;;;;;5033004;28;20381;-70
2022/01/30 11:12:57;;;;;;;;;;;8.20;99.90;;;;;;5033588;28;19913;-82
2022/01/30 11:15:35;;;;;;;;;;;8.10;99.90;;;;;;5032855;28;20559;-70
2022/01/30 11:18:04;;;;;;;;;;;8.30;99.90;;;;;;5033281;28;19917;-70
2022/01/30 11:20:34;;;;;;;;;;;8.20;99.90;;;;;;5033515;28;19913;-72
2022/01/30 11:23:01;;;;;;;;;;;8.20;99.90;;;;;;5031993;28;19913;-79
2022/01/30 11:25:33;;;;;;;;;;;8.50;99.90;;;;;;5032469;28;19917;-71
2022/01/30 11:28:01;;;;;;;;;;;8.40;99.90;;;;;;5047273;28;19924;-73
2022/01/30 11:30:26;;;;;;;;;;;8.40;99.90;;;;;;5033245;28;19917;-70
2022/01/30 11:32:52;;;;;;;;;;;8.40;99.90;;;;;;5032284;28;20276;-73
2022/01/30 11:35:18;;;;;;;;;;;8.30;99.90;;;;;;5032760;28;19921;-71
2022/01/30 11:37:43;;;;;;;;;;;8.30;99.90;;;;;;5033146;28;19917;-77
2022/01/30 11:40:13;;;;;;;;;;;8.30;99.90;;;;;;5032424;28;19913;-72
2022/01/30 11:42:40;;;;;;;;;;;8.30;99.90;;;;;;5032807;28;19923;-72
2022/01/30 11:45:08;;;;;;;;;;;8.40;99.90;;;;;;5032388;28;20253;-80
2022/01/30 11:47:46;;;;;;;;;;;8.30;99.90;;;;;;5032797;28;19917;-77
2022/01/30 11:50:12;;;;;;;;;;;8.20;99.90;;;;;;5033161;28;19921;-74
2022/01/30 11:52:48;;;;;;;;;;;8.40;99.90;;;;;;5032101;28;19921;-80
2022/01/30 11:55:32;;;;;;;;;;;8.70;99.90;;;;;;5031440;28;19991;-72
2022/01/30 11:57:58;;;;;;;;;;;9.00;99.90;;;;;;5032164;28;20383;-74
2022/01/30 12:00:46;;;;;;;;;;;8.90;99.90;;;;;;5031226;28;19917;-76
2022/01/30 12:03:21;;;;;;;;;;;9.20;99.90;;;;;;5028308;28;19921;-73
2022/01/30 12:05:47;;;;;;;;;;;9.20;99.90;;;;;;5030110;28;20284;-79
2022/01/30 12:08:31;;;;;;;;;;;9.20;99.90;;;;;;5030633;28;19924;-70
2022/01/30 12:10:57;;;;;;;;;;;9.30;99.90;;;;;;5031286;28;20434;-74
2022/01/30 12:13:41;;;;;;;;;;;9.30;99.90;;;;;;5031057;28;19913;-72
2022/01/30 12:16:06;;;;;;;;;;;9.30;99.90;;;;;;5029159;28;20395;-71
2022/01/30 12:18:44;;;;;;;;;;;9.20;99.90;;;;;;5029247;28;19917;-71
2022/01/30 12:21:16;;;;;;;;;;;9.30;99.90;;;;;;5031597;28;19989;-70
2022/01/30 12:23:43;;;;;;;;;;;9.20;99.90;;;;;;5032873;28;19917;-76
2022/01/30 12:26:14;;;;;;;;;;;9.10;99.90;;;;;;5031254;28;20357;-73
2022/01/30 12:28:43;;;;;;;;;;;9.20;99.90;;;;;;5030855;28;20292;-79
2022/01/30 12:31:29;;;;;;;;;;;9.00;99.90;;;;;;5027203;28;19913;-71
2022/01/30 12:34:11;;;;;;;;;;;9.00;99.90;;;;;;5044554;28;19941;-70
2022/01/30 12:36:37;;;;;;;;;;;9.10;99.90;;;;;;5029538;28;20359;-72
2022/01/30 12:39:08;;;;;;;;;;;9.50;99.90;;;;;;5031045;28;19921;-78
2022/01/30 12:41:35;;;;;;;;;;;9.20;99.90;;;;;;5031227;28;20360;-72
2022/01/30 12:44:02;;;;;;;;;;;9.30;99.90;;;;;;5031672;28;19960;-78
2022/01/30 12:46:30;;;;;;;;;;;9.50;99.90;;;;;;5032721;28;20353;-77
2022/01/30 12:49:04;;;;;;;;;;;9.80;99.90;;;;;;5032054;28;19921;-77
2022/01/30 12:51:30;;;;;;;;;;;9.60;99.90;;;;;;5032596;28;19917;-78
2022/01/30 12:53:57;;;;;;;;;;;9.40;99.90;;;;;;5036127;28;19916;-75
2022/01/30 12:56:23;;;;;;;;;;;9.50;99.90;;;;;;5036469;28;19920;-77
2022/01/30 12:58:49;;;;;;;;;;;9.40;99.90;;;;;;5035025;28;19992;-73
2022/01/30 13:01:15;;;;;;;;;;;9.60;99.90;;;;;;5035814;28;20376;-78
2022/01/30 13:03:41;;;;;;;;;;;9.60;99.90;;;;;;5036379;28;19913;-77
2022/01/30 13:06:07;;;;;;;;;;;9.60;99.90;;;;;;5036320;28;19952;-73
2022/01/30 13:08:53;;;;;;;;;;;9.60;99.90;;;;;;5036141;28;20368;-77
2022/01/30 13:11:22;;;;;;;;;;;9.70;99.90;;;;;;5035907;28;19919;-78
2022/01/30 13:13:58;;;;;;;;;;;9.60;99.90;;;;;;5034867;28;20284;-73
2022/01/30 13:16:27;;;;;;;;;;;9.10;99.90;;;;;;5036043;28;19998;-73
2022/01/30 13:18:53;;;;;;;;;;;8.90;99.90;;;;;;5035816;28;20388;-75
2022/01/30 13:21:24;;;;;;;;;;;9.00;99.90;;;;;;5035882;28;19962;-77
2022/01/30 13:23:50;;;;;;;;;;;9.10;99.90;;;;;;5035823;28;19998;-78
2022/01/30 13:26:29;;;;;;;;;;;8.90;99.90;;;;;;5051309;28;19952;-78
2022/01/30 13:28:54;;;;;;;;;;;8.50;99.90;;;;;;5035779;28;19925;-77
2022/01/30 13:31:20;;;;;;;;;;;8.20;99.90;;;;;;5035592;28;20387;-75
2022/01/30 13:34:04;;;;;;;;;;;8.10;99.90;;;;;;5035580;28;19955;-78
2022/01/30 13:36:30;;;;;;;;;;;8.00;99.90;;;;;;5035763;28;19988;-75
2022/01/30 13:38:56;;;;;;;;;;;8.00;99.90;;;;;;5035639;28;20368;-78
2022/01/30 13:41:28;;;;;;;;;;;8.00;99.90;;;;;;5034381;28;19940;-77
2022/01/30 13:43:55;;;;;;;;;;;7.90;99.90;;;;;;5035570;28;19914;-78
2022/01/30 13:49:05;;;;;;;;;;;8.00;99.90;;;;;;5035329;28;19928;-77
2022/01/30 13:51:30;;;;;;;;;;;8.00;99.90;;;;;;5035522;28;19913;-77
2022/01/30 13:54:09;;;;;;;;;;;7.80;99.90;;;;;;5035473;28;19917;-78
2022/01/30 13:56:34;;;;;;;;;;;7.70;99.90;;;;;;5033997;28;20284;-78
2022/01/30 13:59:00;;;;;;;;;;;7.70;99.90;;;;;;5033907;28;19913;-74
2022/01/30 14:01:30;;;;;;;;;;;7.70;99.90;;;;;;5035025;28;19917;-77
2022/01/30 14:04:09;;;;;;;;;;;7.70;99.90;;;;;;5034612;28;19913;-72
2022/01/30 14:06:36;;;;;;;;;;;7.50;99.90;;;;;;5035166;28;19948;-78
2022/01/30 14:09:03;;;;;;;;;;;7.40;99.90;;;;;;5034892;28;19928;-73
2022/01/30 14:11:33;;;;;;;;;;;7.40;99.90;;;;;;5034839;28;19913;-78
2022/01/30 14:14:04;;;;;;;;;;;7.40;99.90;;;;;;5033458;28;19928;-78
2022/01/30 14:16:34;;;;;;;;;;;7.30;99.90;;;;;;5034971;28;19967;-72
2022/01/30 14:19:00;;;;;;;;;;;7.30;99.90;;;;;;5034919;28;19921;-78
2022/01/30 14:21:30;;;;;;;;;;;7.20;99.90;;;;;;5034568;28;19913;-78
2022/01/30 14:23:55;;;;;;;;;;;7.20;99.90;;;;;;5049750;28;20441;-78
2022/01/30 14:26:26;;;;;;;;;;;7.20;99.90;;;;;;5033434;28;19913;-78
2022/01/30 14:29:07;;;;;;;;;;;7.20;99.90;;;;;;5034526;28;19921;-78
2022/01/30 14:31:32;;;;;;;;;;;7.20;99.90;;;;;;5034527;28;19913;-71
2022/01/30 14:33:58;;;;;;;;;;;7.10;99.90;;;;;;5033174;28;20055;-73
2022/01/30 14:36:28;;;;;;;;;;;7.10;99.90;;;;;;5034659;28;20276;-79
2022/01/30 14:38:54;;;;;;;;;;;7.10;99.90;;;;;;5034630;28;19913;-82
2022/01/30 14:41:20;;;;;;;;;;;7.10;99.90;;;;;;5034604;28;19917;-78
2022/01/30 14:43:45;;;;;;;;;;;7.00;99.90;;;;;;5034572;28;19913;-71
2022/01/30 14:46:11;;;;;;;;;;;7.00;99.90;;;;;;5034322;28;19917;-72
2022/01/30 14:48:37;;;;;;;;;;;7.10;99.90;;;;;;5033974;28;20045;-78
2022/01/30 14:51:03;;;;;;;;;;;7.10;99.90;;;;;;5034255;28;19921;-79
2022/01/30 14:53:29;;;;;;;;;;;7.10;99.90;;;;;;5033763;28;19917;-74
2022/01/30 14:55:54;;;;;;;;;;;7.10;99.90;;;;;;5034232;28;19920;-72
2022/01/30 14:58:22;;;;;;;;;;;7.10;99.90;;;;;;5034047;28;19924;-73
2022/01/30 15:00:48;;;;;;;;;;;7.10;99.90;;;;;;5034046;28;19917;-71
2022/01/30 15:03:13;;;;;;;;;;;7.10;99.90;;;;;;5034120;28;19913;-79
2022/01/30 15:05:39;;;;;;;;;;;7.10;99.90;;;;;;5034009;28;19963;-79
2022/01/30 15:08:05;;;;;;;;;;;7.10;99.90;;;;;;5033791;28;19955;-80
2022/01/30 15:10:30;;;;;;;;;;;7.10;99.90;;;;;;5033841;28;19987;-73
2022/01/30 15:12:56;;;;;;;;;;;7.10;99.90;;;;;;5033994;28;19967;-78
2022/01/30 15:15:23;;;;;;;;;;;7.10;99.90;;;;;;5031753;28;19917;-79
2022/01/30 15:17:52;;;;;;;;;;;7.00;99.90;;;;;;5048955;28;19947;-79
2022/01/30 15:20:18;;;;;;;;;;;7.00;99.90;;;;;;5033902;28;19920;-77
2022/01/30 15:22:47;;;;;;;;;;;7.00;99.90;;;;;;5033850;28;20273;-79
2022/01/30 15:25:13;;;;;;;;;;;6.90;99.90;;;;;;5032439;28;19913;-72
2022/01/30 15:27:39;;;;;;;;;;;6.90;99.90;;;;;;5032223;28;19935;-73
2022/01/30 15:30:06;;;;;;;;;;;6.80;99.90;;;;;;5033518;28;19921;-73